createdAt,value
2018-12-30T00:02:16.462Z,99.90
2018-12-30T00:04:46.839Z,99.90
2018-12-30T00:07:17.380Z,99.90
2018-12-30T00:09:47.642Z,99.90
2018-12-30T00:12:18.366Z,99.90
2018-12-30T00:14:48.510Z,99.90
2018-12-30T00:17:18.823Z,99.90
2018-12-30T00:19:49.186Z,99.90
2018-12-30T00:22:19.592Z,99.90
2018-12-30T00:24:49.811Z,99.90
2018-12-30T00:27:19.988Z,99.90
2018-12-30T00:29:50.108Z,99.90
2018-12-30T00:32:22.969Z,99.90
2018-12-30T00:34:53.431Z,99.90
2018-12-30T00:37:24.083Z,99.90
2018-12-30T00:39:54.251Z,99.90
2018-12-30T00:42:24.698Z,99.90
2018-12-30T00:44:55.048Z,99.90
2018-12-30T00:47:25.340Z,99.90
2018-12-30T00:49:55.731Z,99.40
2018-12-30T00:52:26.236Z,99.60
2018-12-30T00:54:57.709Z,99.10
2018-12-30T00:57:28.240Z,98.40
2018-12-30T00:59:58.459Z,97.80
2018-12-30T01:02:28.965Z,98.20
2018-12-30T01:04:59.394Z,97.70
2018-12-30T01:07:29.527Z,98.20
2018-12-30T01:10:00.252Z,98.20
2018-12-30T01:12:31.289Z,96.40
2018-12-30T01:15:01.529Z,96.40
2018-12-30T01:17:31.742Z,94.60
2018-12-30T01:20:02.140Z,93.70
2018-12-30T01:22:33.126Z,93.20
2018-12-30T01:25:03.663Z,93.30
2018-12-30T01:27:34.029Z,92.00
2018-12-30T01:30:04.394Z,93.00
2018-12-30T01:32:35.560Z,93.00
2018-12-30T01:35:05.738Z,93.80
2018-12-30T01:37:36.136Z,92.30
2018-12-30T01:40:06.315Z,91.00
2018-12-30T01:42:36.460Z,92.40
2018-12-30T01:45:06.675Z,91.70
2018-12-30T01:47:36.896Z,91.50
2018-12-30T01:50:07.382Z,90.60
2018-12-30T01:52:37.804Z,92.20
2018-12-30T01:55:08.305Z,92.70
2018-12-30T01:57:40.326Z,92.20
2018-12-30T02:00:12.802Z,91.20
2018-12-30T02:02:42.896Z,90.60
2018-12-30T02:05:13.633Z,90.60
2018-12-30T02:07:43.862Z,90.60
2018-12-30T02:10:14.532Z,90.60
2018-12-30T02:12:44.689Z,90.30
2018-12-30T02:15:14.747Z,90.40
2018-12-30T02:17:45.030Z,88.70
2018-12-30T02:20:15.485Z,90.80
2018-12-30T02:22:45.655Z,90.60
2018-12-30T02:25:15.723Z,85.90
2018-12-30T02:27:45.867Z,83.10
2018-12-30T02:30:16.266Z,87.40
2018-12-30T02:32:46.522Z,88.40
2018-12-30T02:35:16.700Z,89.40
2018-12-30T02:37:46.912Z,90.20
2018-12-30T02:40:17.068Z,89.10
2018-12-30T02:42:47.452Z,89.00
2018-12-30T02:45:17.554Z,89.50
2018-12-30T02:47:47.664Z,89.00
2018-12-30T02:50:17.760Z,90.60
2018-12-30T02:52:47.972Z,90.60
2018-12-30T02:55:24.034Z,90.30
2018-12-30T02:57:54.443Z,90.60
2018-12-30T03:00:42.584Z,90.60
2018-12-30T03:03:13.767Z,85.80
2018-12-30T03:05:43.946Z,83.50
2018-12-30T03:08:14.411Z,81.80
2018-12-30T03:10:44.847Z,76.40
2018-12-30T03:13:15.205Z,79.00
2018-12-30T03:15:45.617Z,82.60
2018-12-30T03:18:15.861Z,82.80
2018-12-30T03:20:46.065Z,81.50
2018-12-30T03:23:16.250Z,80.20
2018-12-30T03:25:46.646Z,81.60
2018-12-30T03:28:16.813Z,82.80
2018-12-30T03:30:49.188Z,82.80
2018-12-30T03:33:19.285Z,84.80
2018-12-30T03:35:49.810Z,85.30
2018-12-30T03:38:20.094Z,81.90
2018-12-30T03:40:50.255Z,82.80
2018-12-30T03:43:20.728Z,79.60
2018-12-30T03:45:52.204Z,84.40
2018-12-30T03:48:22.324Z,84.20
2018-12-30T03:50:52.521Z,86.70
2018-12-30T03:53:22.810Z,87.80
2018-12-30T03:55:52.943Z,89.60
2018-12-30T03:58:23.163Z,92.20
2018-12-30T04:00:53.233Z,94.70
2018-12-30T04:03:23.376Z,94.30
2018-12-30T04:06:06.843Z,95.60
2018-12-30T04:08:36.981Z,96.10
2018-12-30T04:28:44.503Z,99.60
2018-12-30T04:31:14.597Z,97.80
2018-12-30T04:33:44.965Z,97.70
2018-12-30T04:36:15.331Z,98.10
2018-12-30T04:38:45.451Z,98.60
2018-12-30T04:41:15.550Z,98.00
2018-12-30T04:43:45.991Z,98.60
2018-12-30T04:46:19.643Z,98.60
2018-12-30T04:48:51.030Z,98.20
2018-12-30T04:51:21.130Z,98.10
2018-12-30T04:53:51.223Z,97.10
2018-12-30T04:56:21.291Z,97.70
2018-12-30T04:58:51.387Z,99.00
2018-12-30T05:01:21.579Z,98.50
2018-12-30T05:03:51.691Z,97.40
2018-12-30T05:06:21.772Z,98.60
2018-12-30T05:08:52.108Z,98.20
2018-12-30T05:11:22.170Z,98.60
2018-12-30T05:13:52.095Z,98.60
2018-12-30T05:16:24.343Z,98.90
2018-12-30T05:18:54.617Z,98.60
2018-12-30T05:21:25.123Z,98.60
2018-12-30T05:23:55.257Z,98.70
2018-12-30T05:26:25.396Z,98.80
2018-12-30T05:28:55.425Z,99.50
2018-12-30T05:31:25.446Z,99.70
2018-12-30T05:33:55.513Z,98.60
2018-12-30T05:36:25.662Z,98.30
2018-12-30T05:38:55.863Z,98.30
2018-12-30T05:41:26.278Z,97.70
2018-12-30T05:43:56.434Z,97.50
2018-12-30T05:46:26.608Z,97.30
2018-12-30T05:48:58.476Z,97.60
2018-12-30T05:51:29.346Z,97.50
2018-12-30T05:54:00.755Z,98.10
2018-12-30T05:56:36.168Z,99.90
2018-12-30T06:02:21.345Z,99.90
2018-12-30T06:04:51.482Z,99.90
2018-12-30T06:07:21.691Z,99.80
2018-12-30T06:09:51.763Z,98.70
2018-12-30T06:12:21.838Z,98.70
2018-12-30T06:14:51.909Z,98.50
2018-12-30T06:17:21.989Z,97.70
2018-12-30T06:19:52.104Z,97.30
2018-12-30T06:22:22.431Z,95.20
2018-12-30T06:24:52.636Z,94.90
2018-12-30T06:27:22.782Z,95.40
2018-12-30T06:29:52.865Z,96.80
2018-12-30T06:32:22.946Z,95.80
2018-12-30T06:34:54.759Z,96.10
2018-12-30T06:37:24.805Z,96.20
2018-12-30T06:39:55.048Z,95.70
2018-12-30T06:42:25.453Z,97.10
2018-12-30T06:44:55.627Z,97.40
2018-12-30T06:47:25.727Z,98.00
2018-12-30T06:49:56.395Z,98.20
2018-12-30T06:52:27.571Z,97.80
2018-12-30T06:54:57.807Z,98.50
2018-12-30T06:57:27.883Z,99.20
2018-12-30T06:59:58.786Z,98.70
2018-12-30T07:02:28.867Z,98.10
2018-12-30T07:04:58.962Z,98.80
2018-12-30T07:07:29.007Z,99.50
2018-12-30T07:09:59.107Z,98.80
2018-12-30T07:12:29.253Z,98.90
2018-12-30T07:15:00.259Z,98.30
2018-12-30T07:17:30.367Z,98.70
2018-12-30T07:20:00.912Z,99.00
2018-12-30T07:22:30.994Z,99.40
2018-12-30T07:25:01.198Z,98.70
2018-12-30T07:27:31.254Z,99.30
2018-12-30T07:30:01.336Z,98.70
2018-12-30T07:32:31.680Z,98.70
2018-12-30T07:35:01.940Z,99.20
2018-12-30T07:37:32.020Z,98.70
2018-12-30T07:40:02.119Z,98.90
2018-12-30T07:42:32.261Z,99.40
2018-12-30T07:45:02.321Z,99.80
2018-12-30T07:47:32.422Z,99.30
2018-12-30T07:50:03.072Z,98.70
2018-12-30T07:52:33.177Z,97.80
2018-12-30T07:55:03.227Z,98.00
2018-12-30T07:57:33.330Z,97.30
2018-12-30T08:00:03.467Z,98.10
2018-12-30T08:02:33.848Z,96.90
2018-12-30T08:05:04.044Z,97.10
2018-12-30T08:07:34.143Z,97.40
2018-12-30T08:10:04.337Z,97.40
2018-12-30T08:12:34.403Z,97.00
2018-12-30T08:15:04.557Z,97.00
2018-12-30T08:17:34.901Z,95.20
2018-12-30T08:20:06.050Z,97.30
2018-12-30T08:22:36.129Z,96.50
2018-12-30T08:25:06.276Z,96.40
2018-12-30T08:27:36.376Z,95.40
2018-12-30T08:30:06.543Z,94.80
2018-12-30T08:32:36.853Z,94.10
2018-12-30T08:35:07.272Z,94.80
2018-12-30T08:37:37.435Z,93.90
2018-12-30T08:40:08.016Z,92.30
2018-12-30T08:42:38.116Z,93.10
2018-12-30T08:45:08.328Z,92.60
2018-12-30T08:47:38.495Z,92.30
2018-12-30T08:50:08.633Z,91.60
2018-12-30T08:52:38.709Z,90.80
2018-12-30T08:55:09.049Z,90.10
2018-12-30T08:57:39.217Z,90.20
2018-12-30T09:00:09.239Z,90.40
2018-12-30T09:02:39.479Z,87.20
2018-12-30T09:05:09.645Z,89.40
2018-12-30T09:07:41.259Z,88.40
2018-12-30T09:10:11.443Z,87.20
2018-12-30T09:12:41.620Z,87.10
2018-12-30T09:15:11.654Z,87.90
2018-12-30T09:17:43.642Z,88.00
2018-12-30T09:20:13.767Z,88.00
2018-12-30T09:22:44.262Z,89.20
2018-12-30T09:25:14.412Z,90.00
2018-12-30T09:27:44.498Z,84.80
2018-12-30T09:30:14.501Z,86.20
2018-12-30T09:32:44.674Z,82.70
2018-12-30T09:35:14.891Z,78.90
2018-12-30T09:37:45.217Z,80.90
2018-12-30T09:40:15.409Z,79.00
2018-12-30T09:42:45.575Z,79.20
2018-12-30T09:45:15.705Z,75.20
2018-12-30T09:47:45.819Z,74.80
2018-12-30T09:50:16.492Z,78.50
2018-12-30T09:52:46.613Z,83.30
2018-12-30T09:55:16.733Z,82.10
2018-12-30T09:57:46.878Z,81.20
2018-12-30T10:00:16.966Z,76.20
2018-12-30T10:02:47.347Z,78.20
2018-12-30T10:05:17.536Z,79.00
2018-12-30T10:07:47.723Z,84.90
2018-12-30T10:10:17.899Z,84.00
2018-12-30T10:12:49.146Z,82.60
2018-12-30T10:15:20.660Z,81.50
2018-12-30T10:17:50.855Z,76.80
2018-12-30T10:20:20.943Z,73.60
2018-12-30T10:22:58.646Z,77.10
2018-12-30T10:25:22.893Z,77.10
2018-12-30T10:27:53.083Z,76.50
2018-12-30T10:30:23.430Z,73.50
2018-12-30T10:32:53.554Z,74.40
2018-12-30T10:35:23.699Z,77.60
2018-12-30T10:37:53.813Z,79.00
2018-12-30T10:40:23.987Z,74.50
2018-12-30T10:42:54.175Z,83.30
2018-12-30T10:45:24.612Z,75.70
2018-12-30T10:47:54.762Z,74.40
2018-12-30T10:50:24.891Z,78.40
2018-12-30T10:52:55.058Z,81.30
2018-12-30T10:55:25.210Z,74.90
2018-12-30T10:57:55.587Z,77.60
2018-12-30T11:00:25.572Z,78.80
2018-12-30T11:02:55.772Z,72.20
2018-12-30T11:05:25.904Z,70.00
2018-12-30T11:07:57.354Z,76.20
2018-12-30T11:10:27.575Z,72.20
2018-12-30T11:12:58.960Z,71.60
2018-12-30T11:15:28.966Z,73.30
2018-12-30T11:17:59.034Z,70.30
2018-12-30T11:20:29.196Z,71.70
2018-12-30T11:22:59.350Z,67.60
2018-12-30T11:25:29.796Z,70.70
2018-12-30T11:28:03.073Z,61.60
2018-12-30T11:30:33.263Z,66.60
2018-12-30T11:33:03.947Z,57.90
2018-12-30T11:35:34.142Z,65.10
2018-12-30T11:38:04.318Z,61.40
2018-12-30T11:40:35.436Z,56.60
2018-12-30T11:43:05.930Z,65.80
2018-12-30T11:45:36.180Z,65.00
2018-12-30T11:48:06.489Z,65.00
2018-12-30T11:50:38.906Z,64.40
2018-12-30T11:53:09.059Z,70.90
2018-12-30T11:55:39.346Z,71.90
2018-12-30T11:58:09.473Z,69.80
2018-12-30T12:00:39.907Z,69.80
2018-12-30T12:03:10.115Z,74.20
2018-12-30T12:05:40.242Z,67.10
2018-12-30T12:08:10.426Z,68.90
2018-12-30T12:10:40.916Z,71.80
2018-12-30T12:13:11.463Z,60.10
2018-12-30T12:15:41.934Z,61.80
2018-12-30T12:18:12.099Z,56.10
2018-12-30T12:20:42.321Z,60.30
2018-12-30T12:23:12.576Z,54.30
2018-12-30T12:25:42.949Z,54.30
2018-12-30T12:28:13.950Z,59.80
2018-12-30T12:30:44.036Z,55.60
2018-12-30T12:33:14.149Z,60.10
2018-12-30T12:35:44.344Z,56.10
2018-12-30T12:38:14.601Z,58.60
2018-12-30T12:40:45.843Z,55.60
2018-12-30T12:43:16.131Z,55.60
2018-12-30T12:45:46.368Z,57.50
2018-12-30T12:48:16.460Z,57.10
2018-12-30T12:50:46.696Z,58.50
2018-12-30T12:53:17.159Z,60.80
2018-12-30T12:55:47.385Z,59.50
2018-12-30T12:58:17.658Z,63.90
2018-12-30T13:00:48.029Z,58.70
2018-12-30T13:03:18.216Z,60.90
2018-12-30T13:05:48.689Z,60.10
2018-12-30T13:08:19.147Z,56.30
2018-12-30T13:10:49.432Z,53.30
2018-12-30T13:13:19.529Z,58.20
2018-12-30T13:15:49.607Z,57.70
2018-12-30T13:18:19.691Z,53.00
2018-12-30T13:20:49.997Z,51.80
2018-12-30T13:23:20.324Z,50.50
2018-12-30T13:25:50.445Z,50.20
2018-12-30T13:28:20.696Z,51.00
2018-12-30T13:30:51.079Z,49.60
2018-12-30T13:33:21.205Z,50.80
2018-12-30T13:35:53.938Z,54.50
2018-12-30T13:38:28.291Z,42.30
2018-12-30T13:40:56.272Z,43.10
2018-12-30T13:43:26.470Z,48.60
2018-12-30T13:45:56.645Z,47.70
2018-12-30T13:48:26.817Z,49.10
2018-12-30T13:50:57.173Z,45.40
2018-12-30T13:53:27.322Z,50.20
2018-12-30T13:55:57.419Z,48.70
2018-12-30T13:58:27.671Z,47.40
2018-12-30T14:00:57.773Z,46.20
2018-12-30T14:03:28.123Z,43.90
2018-12-30T14:05:58.237Z,43.60
2018-12-30T14:08:28.339Z,43.90
2018-12-30T14:10:58.519Z,43.20
2018-12-30T14:13:28.630Z,46.20
2018-12-30T14:15:58.886Z,46.20
2018-12-30T14:18:29.270Z,42.90
2018-12-30T14:20:59.530Z,47.10
2018-12-30T14:23:29.611Z,42.70
2018-12-30T14:25:59.694Z,41.40
2018-12-30T14:28:29.938Z,45.90
2018-12-30T14:31:00.323Z,46.30
2018-12-30T14:33:30.419Z,47.00
2018-12-30T14:36:00.573Z,46.20
2018-12-30T14:38:30.772Z,49.00
2018-12-30T14:41:02.583Z,45.50
2018-12-30T14:43:32.766Z,48.60
2018-12-30T14:46:02.845Z,47.90
2018-12-30T14:48:33.112Z,41.60
2018-12-30T14:51:03.845Z,43.80
2018-12-30T14:53:33.994Z,46.10
2018-12-30T14:56:04.594Z,45.80
2018-12-30T14:58:34.850Z,42.00
2018-12-30T15:01:04.963Z,43.30
2018-12-30T15:03:35.188Z,46.20
2018-12-30T15:06:05.617Z,49.20
2018-12-30T15:08:35.895Z,47.00
2018-12-30T15:11:07.581Z,44.20
2018-12-30T15:13:37.906Z,46.90
2018-12-30T15:16:08.087Z,46.10
2018-12-30T15:18:38.592Z,46.70
2018-12-30T15:21:08.761Z,48.10
2018-12-30T15:23:38.990Z,47.50
2018-12-30T15:26:09.184Z,55.50
2018-12-30T15:28:39.667Z,57.40
2018-12-30T15:31:09.845Z,56.80
2018-12-30T15:33:40.004Z,52.50
2018-12-30T15:36:10.133Z,52.50
2018-12-30T15:38:40.260Z,50.60
2018-12-30T15:41:10.720Z,48.80
2018-12-30T15:43:40.975Z,49.70
2018-12-30T15:46:11.190Z,48.60
2018-12-30T15:48:41.300Z,44.80
2018-12-30T15:51:11.750Z,42.40
2018-12-30T15:53:41.877Z,42.30
2018-12-30T15:56:12.027Z,44.10
2018-12-30T15:58:42.221Z,38.90
2018-12-30T16:01:12.986Z,39.30
2018-12-30T16:03:43.161Z,38.20
2018-12-30T16:06:15.649Z,39.60
2018-12-30T16:08:45.719Z,36.70
2018-12-30T16:11:15.895Z,36.30
2018-12-30T16:13:45.998Z,38.10
2018-12-30T16:16:16.000Z,37.30
2018-12-30T16:18:46.193Z,41.00
2018-12-30T16:21:16.330Z,42.40
2018-12-30T16:23:46.487Z,43.90
2018-12-30T16:26:17.080Z,44.00
2018-12-30T16:28:47.198Z,45.50
2018-12-30T16:31:17.427Z,44.60
2018-12-30T16:33:47.627Z,46.30
2018-12-30T16:36:18.096Z,45.10
2018-12-30T16:38:48.259Z,43.90
2018-12-30T16:41:18.447Z,42.50
2018-12-30T16:43:48.615Z,44.30
2018-12-30T16:46:19.034Z,45.80
2018-12-30T16:48:49.323Z,41.30
2018-12-30T16:51:19.534Z,45.30
2018-12-30T16:53:49.882Z,42.80
2018-12-30T16:56:20.054Z,46.60
2018-12-30T16:58:50.275Z,47.20
2018-12-30T17:01:20.440Z,45.80
2018-12-30T17:03:50.598Z,47.40
2018-12-30T17:06:21.975Z,49.10
2018-12-30T17:08:52.087Z,47.80
2018-12-30T17:11:22.176Z,49.20
2018-12-30T17:13:52.341Z,49.20
2018-12-30T17:16:24.154Z,51.20
2018-12-30T17:18:56.107Z,51.20
2018-12-30T17:21:27.113Z,53.80
2018-12-30T17:23:57.242Z,54.20
2018-12-30T17:26:28.617Z,48.30
2018-12-30T17:29:00.133Z,49.70
2018-12-30T17:31:30.305Z,49.00
2018-12-30T17:34:00.477Z,50.50
2018-12-30T17:36:30.558Z,45.90
2018-12-30T17:39:00.626Z,50.00
2018-12-30T17:41:30.987Z,50.70
2018-12-30T17:44:01.244Z,50.60
2018-12-30T17:46:31.406Z,52.90
2018-12-30T17:49:01.503Z,56.30
2018-12-30T17:51:31.598Z,55.60
2018-12-30T17:54:02.679Z,54.10
2018-12-30T17:56:32.794Z,55.60
2018-12-30T17:59:03.631Z,56.40
2018-12-30T18:01:33.976Z,58.60
2018-12-30T18:04:04.422Z,58.30
2018-12-30T18:06:34.632Z,56.50
2018-12-30T18:09:06.085Z,56.00
2018-12-30T18:11:36.342Z,55.20
2018-12-30T18:14:14.907Z,58.10
2018-12-30T18:16:45.551Z,57.40
2018-12-30T18:19:15.628Z,57.50
2018-12-30T18:21:45.708Z,58.10
2018-12-30T18:24:15.898Z,53.80
2018-12-30T18:26:46.009Z,55.20
2018-12-30T18:29:16.361Z,56.00
2018-12-30T18:31:46.509Z,55.20
2018-12-30T18:34:16.767Z,50.10
2018-12-30T18:36:47.027Z,49.10
2018-12-30T18:39:17.414Z,50.80
2018-12-30T18:41:47.659Z,49.50
2018-12-30T18:44:17.774Z,51.70
2018-12-30T18:46:48.945Z,49.40
2018-12-30T18:49:19.138Z,50.60
2018-12-30T18:51:49.465Z,49.90
2018-12-30T18:54:19.646Z,48.30
2018-12-30T18:56:49.853Z,47.20
2018-12-30T18:59:20.053Z,45.80
2018-12-30T19:01:50.598Z,48.20
2018-12-30T19:04:20.767Z,51.10
2018-12-30T19:06:50.928Z,49.80
2018-12-30T19:09:21.104Z,52.10
2018-12-30T19:11:51.552Z,50.00
2018-12-30T19:14:22.639Z,50.60
2018-12-30T19:16:52.734Z,46.40
2018-12-30T19:19:22.833Z,48.20
2018-12-30T19:21:53.024Z,50.50
2018-12-30T19:24:23.173Z,48.10
2018-12-30T19:26:53.656Z,47.20
2018-12-30T19:29:23.856Z,51.90
2018-12-30T19:31:54.143Z,50.50
2018-12-30T19:34:24.274Z,48.60
2018-12-30T19:36:55.538Z,44.50
2018-12-30T19:39:28.370Z,47.80
2018-12-30T19:42:00.554Z,42.80
2018-12-30T19:44:33.112Z,45.80
2018-12-30T19:47:04.091Z,44.90
2018-12-30T19:49:34.311Z,48.20
2018-12-30T19:52:04.970Z,46.90
2018-12-30T19:54:36.428Z,48.20
2018-12-30T19:57:06.899Z,45.80
2018-12-30T19:59:37.086Z,43.20
2018-12-30T20:02:09.276Z,46.50
2018-12-30T20:04:40.806Z,49.20
2018-12-30T20:07:11.165Z,41.90
2018-12-30T20:09:41.399Z,43.10
2018-12-30T20:12:11.843Z,43.30
2018-12-30T20:14:43.445Z,41.00
2018-12-30T20:17:13.916Z,43.60
2018-12-30T20:19:44.117Z,44.30
2018-12-30T20:22:14.269Z,45.80
2018-12-30T20:24:44.521Z,49.50
2018-12-30T20:27:16.798Z,46.30
2018-12-30T20:29:46.959Z,49.20
2018-12-30T20:32:17.122Z,46.90
2018-12-30T20:34:47.259Z,49.50
2018-12-30T20:37:17.411Z,45.80
2018-12-30T20:39:47.513Z,47.90
2018-12-30T20:42:18.783Z,54.50
2018-12-30T20:44:50.776Z,53.40
2018-12-30T20:47:21.031Z,52.10
2018-12-30T20:49:51.271Z,53.70
2018-12-30T20:52:23.805Z,55.10
2018-12-30T20:54:59.933Z,55.10
2018-12-30T20:57:33.094Z,55.10
2018-12-30T21:00:04.365Z,56.90
2018-12-30T21:02:34.504Z,53.90
2018-12-30T21:05:04.915Z,53.10
2018-12-30T21:07:35.132Z,53.90
2018-12-30T21:10:05.559Z,56.70
2018-12-30T21:12:36.153Z,57.50
2018-12-30T21:15:06.591Z,58.30
2018-12-30T21:17:47.388Z,56.70
2018-12-30T21:20:17.745Z,56.60
2018-12-30T21:22:48.045Z,55.50
2018-12-30T21:25:18.239Z,56.80
2018-12-30T21:27:48.418Z,54.00
2018-12-30T21:30:18.371Z,56.60
2018-12-30T21:32:48.567Z,58.40
2018-12-30T21:35:18.664Z,57.90
2018-12-30T21:37:48.841Z,56.90
2018-12-30T21:40:19.333Z,57.00
2018-12-30T21:42:49.541Z,55.10
2018-12-30T21:45:19.446Z,56.50
2018-12-30T21:47:49.574Z,55.10
2018-12-30T21:50:19.815Z,56.50
2018-12-30T21:52:51.608Z,58.20
2018-12-30T21:55:21.900Z,54.20
2018-12-30T21:57:53.942Z,55.10
2018-12-30T22:00:24.291Z,53.50
2018-12-30T22:02:54.412Z,55.10
2018-12-30T22:05:24.598Z,59.20
2018-12-30T22:07:54.686Z,59.70
2018-12-30T22:10:24.825Z,57.50
2018-12-30T22:12:55.297Z,62.00
2018-12-30T22:15:25.297Z,64.50
2018-12-30T22:17:55.366Z,65.80
2018-12-30T22:20:25.553Z,67.60
2018-12-30T22:22:55.706Z,66.90
2018-12-30T22:25:25.917Z,69.80
2018-12-30T22:27:56.356Z,71.70
2018-12-30T22:30:26.758Z,71.90
2018-12-30T22:32:57.240Z,74.00
2018-12-30T22:35:33.565Z,77.90
2018-12-30T22:38:04.561Z,75.10
2018-12-30T22:40:34.700Z,81.60
2018-12-30T22:43:05.119Z,83.20
2018-12-30T22:45:35.432Z,84.10
2018-12-30T22:48:05.643Z,85.70
2018-12-30T22:50:35.731Z,81.10
2018-12-30T22:53:05.802Z,82.20
2018-12-30T22:55:35.947Z,85.90
2018-12-30T22:58:06.671Z,86.80
2018-12-30T23:00:54.610Z,85.40
2018-12-30T23:03:24.733Z,87.50
2018-12-30T23:05:54.943Z,87.30
2018-12-30T23:08:25.200Z,87.20
2018-12-30T23:10:55.635Z,85.90
2018-12-30T23:13:25.762Z,89.60
2018-12-30T23:15:55.835Z,88.90
2018-12-30T23:18:25.950Z,90.30
2018-12-30T23:20:56.104Z,90.50
2018-12-30T23:23:26.499Z,90.90
2018-12-30T23:25:56.669Z,88.90
2018-12-30T23:28:26.839Z,90.10
2018-12-30T23:30:56.923Z,90.10
2018-12-30T23:33:27.227Z,90.40
2018-12-30T23:35:57.630Z,91.10
2018-12-30T23:38:27.713Z,91.30
2018-12-30T23:40:57.792Z,92.10
2018-12-30T23:43:28.213Z,92.10
2018-12-30T23:45:58.538Z,92.20
2018-12-30T23:48:28.635Z,93.00
2018-12-30T23:50:58.734Z,91.90
2018-12-30T23:53:28.801Z,92.20
2018-12-30T23:55:59.001Z,92.50
2018-12-30T23:58:29.260Z,93.40
